createdAt,value
2023-05-10T00:02:57.765Z,17.80
2023-05-10T00:07:59.089Z,21.20
2023-05-10T00:13:00.535Z,17.70
2023-05-10T00:18:01.949Z,23.10
2023-05-10T00:23:03.292Z,23.90
2023-05-10T00:28:04.793Z,21.90
2023-05-10T00:33:06.303Z,22.60
2023-05-10T00:38:07.653Z,21.80
2023-05-10T00:43:08.947Z,21.90
2023-05-10T00:48:10.513Z,21.50
2023-05-10T00:53:12.613Z,18.50
2023-05-10T00:58:14.368Z,21.00
2023-05-10T01:03:16.065Z,17.50
2023-05-10T01:08:17.749Z,22.10
2023-05-10T01:13:41.354Z,21.60
2023-05-10T01:18:44.571Z,22.30
2023-05-10T01:23:54.765Z,22.40
2023-05-10T01:29:26.456Z,18.10
2023-05-10T01:34:35.528Z,20.70
2023-05-10T01:39:58.597Z,18.20
2023-05-10T01:45:13.191Z,18.20
2023-05-10T01:50:25.119Z,22.30
2023-05-10T01:55:32.603Z,21.00
2023-05-10T02:00:35.978Z,24.30
2023-05-10T02:05:39.431Z,24.90
2023-05-10T02:10:42.918Z,23.50
2023-05-10T02:15:48.409Z,24.10
2023-05-10T02:20:52.781Z,23.30
2023-05-10T02:25:56.803Z,23.20
2023-05-10T02:30:58.276Z,21.20
2023-05-10T02:36:08.076Z,18.20
2023-05-10T02:41:23.268Z,20.20
2023-05-10T02:46:24.652Z,18.60
2023-05-10T02:51:31.975Z,21.90
2023-05-10T02:56:36.237Z,19.30
2023-05-10T03:01:37.467Z,22.00
2023-05-10T03:06:38.769Z,24.50
2023-05-10T03:11:43.084Z,20.80
2023-05-10T03:16:52.830Z,22.50
2023-05-10T03:21:59.135Z,20.70
2023-05-10T03:27:03.238Z,20.60
2023-05-10T03:32:04.614Z,20.00
2023-05-10T03:37:06.574Z,22.20
2023-05-10T03:42:08.213Z,20.70
2023-05-10T03:47:09.897Z,20.10
2023-05-10T03:53:10.973Z,22.30
2023-05-10T03:59:32.153Z,21.40
2023-05-10T04:04:53.759Z,23.40
2023-05-10T04:09:55.427Z,22.20
2023-05-10T04:14:57.754Z,21.80
2023-05-10T04:19:58.969Z,23.90
2023-05-10T04:25:00.481Z,22.90
2023-05-10T04:30:01.735Z,19.90
2023-05-10T04:35:05.053Z,20.50
2023-05-10T04:40:06.905Z,21.20
2023-05-10T04:45:09.872Z,22.50
2023-05-10T04:51:11.029Z,23.10
2023-05-10T04:57:32.191Z,23.20
2023-05-10T05:03:53.264Z,21.40
2023-05-10T05:10:14.460Z,19.20
2023-05-10T05:16:35.673Z,17.60
2023-05-10T05:21:57.162Z,21.40
2023-05-10T05:27:58.391Z,20.30
2023-05-10T05:34:19.723Z,17.20
2023-05-10T05:40:40.664Z,16.80
2023-05-10T05:47:01.683Z,16.00
2023-05-10T05:53:22.581Z,18.80
2023-05-10T05:59:53.572Z,18.60
2023-05-10T06:06:14.591Z,13.30
2023-05-10T06:12:35.633Z,18.10
2023-05-10T06:18:12.495Z,14.70
2023-05-10T06:28:15.008Z,10.80
2023-05-10T06:33:16.549Z,16.80
2023-05-10T06:38:17.790Z,13.10
2023-05-10T06:43:19.009Z,11.20
2023-05-10T06:48:20.353Z,17.00
2023-05-10T06:53:21.740Z,10.00
2023-05-10T06:58:23.292Z,11.80
2023-05-10T07:03:24.720Z,9.80
2023-05-10T07:08:26.182Z,10.20
2023-05-10T07:13:27.560Z,12.50
2023-05-10T07:18:29.335Z,14.50
2023-05-10T07:23:30.895Z,9.20
2023-05-10T07:28:32.127Z,9.60
2023-05-10T07:33:33.482Z,13.00
2023-05-10T07:38:38.934Z,13.00
2023-05-10T07:43:41.625Z,8.30
2023-05-10T07:48:42.837Z,7.80
2023-05-10T07:53:44.079Z,7.80
2023-05-10T07:58:45.512Z,9.80
2023-05-10T08:04:46.858Z,7.60
2023-05-10T08:10:18.507Z,6.80
2023-05-10T08:15:20.059Z,11.80
2023-05-10T08:20:21.547Z,6.70
2023-05-10T08:25:22.903Z,6.70
2023-05-10T08:30:24.207Z,7.50
2023-05-10T08:35:25.447Z,5.40
2023-05-10T08:40:26.956Z,7.80
2023-05-10T08:45:33.090Z,7.80
2023-05-10T08:50:37.014Z,11.00
2023-05-10T08:55:39.296Z,5.70
2023-05-10T09:00:40.963Z,9.10
2023-05-10T09:05:42.776Z,4.30
2023-05-10T09:10:44.911Z,9.20
2023-05-10T09:15:46.580Z,5.70
2023-05-10T09:20:48.888Z,6.70
2023-05-10T09:26:03.731Z,5.90
2023-05-10T09:31:05.192Z,10.10
2023-05-10T09:36:09.830Z,5.80
2023-05-10T09:41:22.356Z,9.20
2023-05-10T09:46:24.737Z,6.10
2023-05-10T09:51:27.433Z,8.50
2023-05-10T09:56:37.948Z,12.60
2023-05-10T10:01:39.862Z,9.60
2023-05-10T10:06:41.157Z,9.30
2023-05-10T10:11:42.594Z,8.30
2023-05-10T10:16:59.497Z,6.30
2023-05-10T10:22:06.101Z,7.10
2023-05-10T10:27:29.123Z,8.00
2023-05-10T10:32:50.527Z,4.10
2023-05-10T10:37:51.866Z,6.20
2023-05-10T10:42:54.541Z,8.30
2023-05-10T10:48:22.206Z,6.00
2023-05-10T10:53:26.901Z,9.40
2023-05-10T10:58:34.456Z,5.50
2023-05-10T11:03:38.478Z,5.00
2023-05-10T11:08:44.395Z,5.70
2023-05-10T11:13:51.230Z,7.60
2023-05-10T11:19:02.149Z,7.90
2023-05-10T11:24:13.860Z,5.30
2023-05-10T11:29:16.314Z,8.80
2023-05-10T11:34:25.818Z,5.40
2023-05-10T11:39:31.967Z,4.70
2023-05-10T11:44:33.694Z,8.40
2023-05-10T11:49:34.929Z,4.20
2023-05-10T11:54:36.347Z,7.60
2023-05-10T11:59:37.676Z,5.60
2023-05-10T12:04:39.238Z,6.50
2023-05-10T12:09:45.274Z,8.90
2023-05-10T12:14:50.830Z,3.60
2023-05-10T12:19:51.861Z,8.20
2023-05-10T12:24:53.145Z,4.00
2023-05-10T12:29:55.193Z,7.00
2023-05-10T12:34:58.144Z,6.20
2023-05-10T12:39:59.501Z,5.80
2023-05-10T12:45:00.781Z,5.90
2023-05-10T12:51:01.848Z,6.80
2023-05-10T12:57:22.880Z,4.40
2023-05-10T13:03:46.640Z,6.90
2023-05-10T13:10:07.716Z,5.40
2023-05-10T13:16:28.861Z,5.50
2023-05-10T13:22:50.630Z,7.80
2023-05-10T13:29:13.149Z,7.30
2023-05-10T13:35:34.312Z,5.10
2023-05-10T13:41:55.833Z,6.00
2023-05-10T13:47:56.919Z,6.00
2023-05-10T13:54:18.091Z,6.50
2023-05-10T14:00:39.128Z,8.10
2023-05-10T14:06:00.717Z,5.10
2023-05-10T14:11:02.208Z,5.70
2023-05-10T14:16:03.929Z,8.00
2023-05-10T14:21:05.413Z,9.40
2023-05-10T14:32:11.971Z,7.50
2023-05-10T14:37:22.203Z,9.30
2023-05-10T14:42:43.611Z,6.20
2023-05-10T14:48:37.379Z,6.80
2023-05-10T14:55:39.712Z,5.40
2023-05-10T15:02:22.024Z,9.40
2023-05-10T15:08:43.759Z,11.20
2023-05-10T15:15:05.174Z,7.70
2023-05-10T15:21:35.617Z,6.50
2023-05-10T15:27:26.959Z,5.10
2023-05-10T15:32:37.529Z,6.40
2023-05-10T15:44:29.081Z,4.40
2023-05-10T15:49:30.545Z,7.00
2023-05-10T15:55:31.740Z,12.60
2023-05-10T16:01:52.868Z,5.40
2023-05-10T16:08:23.994Z,4.50
2023-05-10T16:14:44.891Z,4.90
2023-05-10T16:21:06.163Z,4.30
2023-05-10T16:27:27.285Z,7.40
2023-05-10T16:33:48.343Z,7.70
2023-05-10T16:39:16.045Z,4.50
2023-05-10T16:44:18.966Z,9.40
2023-05-10T16:49:23.671Z,12.20
2023-05-10T16:55:26.594Z,5.80
2023-05-10T17:00:48.401Z,11.50
2023-05-10T17:06:49.527Z,11.90
2023-05-10T17:13:10.776Z,8.50
2023-05-10T17:19:32.041Z,9.20
2023-05-10T17:25:53.186Z,8.10
2023-05-10T17:32:14.223Z,9.70
2023-05-10T17:38:35.370Z,15.20
2023-05-10T17:44:56.488Z,12.20
2023-05-10T17:51:17.618Z,11.60
2023-05-10T17:57:38.873Z,15.00
2023-05-10T18:04:00.118Z,13.80
2023-05-10T18:18:03.224Z,11.10
2023-05-10T18:24:34.665Z,12.20
2023-05-10T18:29:59.979Z,10.90
2023-05-10T18:47:37.854Z,15.50
2023-05-10T18:52:39.074Z,12.10
2023-05-10T18:58:40.169Z,20.30
2023-05-10T19:04:01.600Z,25.20
2023-05-10T19:09:03.329Z,18.00
2023-05-10T19:14:05.648Z,17.90
2023-05-10T19:19:09.668Z,15.60
2023-05-10T19:24:12.021Z,16.40
2023-05-10T19:29:22.638Z,11.80
2023-05-10T19:41:24.774Z,20.00
2023-05-10T19:47:45.715Z,18.00
2023-05-10T19:54:06.606Z,14.50
2023-05-10T20:00:27.594Z,19.50
2023-05-10T20:06:48.562Z,14.80
2023-05-10T20:13:09.832Z,11.90
2023-05-10T20:19:30.938Z,17.30
2023-05-10T20:25:51.987Z,12.50
2023-05-10T20:32:12.852Z,12.50
2023-05-10T20:38:33.851Z,12.90
2023-05-10T20:44:54.784Z,11.80
2023-05-10T20:51:15.765Z,14.30
2023-05-10T20:56:44.387Z,17.60
2023-05-10T21:01:45.624Z,17.40
2023-05-10T21:06:47.765Z,16.90
2023-05-10T21:12:49.572Z,19.30
2023-05-10T21:18:10.955Z,15.40
2023-05-10T21:23:12.344Z,16.80
2023-05-10T21:28:13.863Z,17.60
2023-05-10T21:34:15.133Z,15.50
2023-05-10T21:40:37.885Z,13.40
2023-05-10T21:46:59.850Z,13.00
2023-05-10T21:53:22.622Z,15.10
2023-05-10T21:59:43.605Z,13.70
2023-05-10T22:06:14.566Z,14.80
2023-05-10T22:11:35.798Z,24.40
2023-05-10T22:16:36.973Z,17.30
2023-05-10T22:22:05.166Z,12.60
2023-05-10T22:27:06.591Z,18.10
2023-05-10T22:32:08.082Z,14.30
2023-05-10T22:37:09.284Z,15.90
2023-05-10T22:42:10.733Z,15.20
2023-05-10T22:47:12.153Z,13.00
2023-05-10T22:52:13.616Z,12.20
2023-05-10T22:57:15.670Z,11.90
2023-05-10T23:02:17.019Z,15.60
2023-05-10T23:07:18.521Z,11.60
2023-05-10T23:12:20.178Z,12.10
2023-05-10T23:17:25.322Z,13.00
2023-05-10T23:22:26.533Z,14.20
2023-05-10T23:27:29.576Z,14.50
2023-05-10T23:32:52.216Z,17.40
2023-05-10T23:38:54.088Z,13.30
2023-05-10T23:44:09.642Z,12.80
2023-05-10T23:50:12.141Z,23.90
2023-05-10T23:56:33.148Z,16.80
